West Middlesex, Pennsylvania
Current Conditions -  °F | °C
As of 10:51 AM on Wednesday 22 Oct 2014 (Local Time) from KYNG Reporting Station
Overcast Overcast  
Wind Chill: 40°   Ceiling: 1000
Heat Index: 46°   Visibility: 10mi
Dew Point: 42°   Wind: 13mph
Humidity: 86%   Direction: 360°N
Pressure: 30.21"   Gusts: NA
Location:  41.17°N, 80.45°W
Report Text: KYNG 221451Z 36011KT 10SM OVC010 08/06 A3021 RMK AO2 SLP235 T00780056 51017
Loading
Personal Weather Stations






























Interactive Weather Map
Tropical Storm Tracking
New forecast layout! Learn more

10-Day Weather Forecast

Advertisements
Track Severe Weather on mobile